Hilger, Montana
Current Conditions -  °F | °C
As of 8:54 PM on Sunday 25 Jan 2015 (Local Time) from KLWT Reporting Station
Clear Clear  
Wind Chill: 38°   Ceiling: Unl
Heat Index: 45°   Visibility: 10mi
Dew Point: 30°   Wind: 16mph
Humidity: 56%   Direction: 240°WSW
Pressure: 30.05"   Gusts: NA
Location:  47.25°N, 109.36°W
Report Text: KLWT 260354Z AUTO 24014KT 10SM CLR 07/M01 A3005 RMK AO2 SLP181 T00721011
Loading
Personal Weather Stations






























Interactive Weather Map New forecast layout! Learn more

10-Day Weather Forecast

Advertisements
Track Severe Weather on mobile